< Typhoon 199511 1995 Season Typhoon 199513 >
Typhoon 199512 (OSCAR)
General InformationTrack Information on Google MapsDetailed Wind InformationList of All Images || NewsDisaster Info.ResourceGoogle EarthGE AnimationAtom FeedGeoJSON
Detalied Best Track (Time Zone = UTC)
Year Month Day Hour Lat. Long. Pressure (hPa) Wind (kt) Class Image Chart
1995 9 12 00 15.2 147.5 1008 0 2 Image Chart
1995 9 12 06 16.2 147.1 1004 0 2 Image Chart
1995 9 12 12 16.8 146.7 1000 0 2 Image Chart
1995 9 12 18 17.3 146.4 996 35 3 Image Chart
1995 9 13 00 17.7 146.1 992 40 3 Image Chart
1995 9 13 06 18.6 145.0 985 45 3 Image Chart
1995 9 13 12 19.4 143.6 980 50 4 Image Chart
1995 9 13 18 19.9 142.5 975 60 4 Image Chart
1995 9 14 00 20.4 141.2 970 65 5 Image Chart
1995 9 14 06 20.8 140.1 965 70 5 Image Chart
1995 9 14 12 21.5 139.3 955 75 5 Image Chart
1995 9 14 18 22.2 138.6 945 85 5 Image Chart
1995 9 15 00 22.9 138.0 935 90 5 Image Chart
1995 9 15 06 24.0 137.4 930 95 5 Image Chart
1995 9 15 12 24.9 137.0 925 95 5 Image Chart
1995 9 15 18 25.8 136.7 925 95 5 Image Chart
1995 9 16 00 27.1 136.5 925 100 5 Image Chart
1995 9 16 03 27.7 136.5 925 100 5 Image Chart
1995 9 16 06 28.2 136.6 925 100 5 Image Chart
1995 9 16 09 28.9 136.9 925 100 5 Image Chart
1995 9 16 12 29.5 137.4 925 100 5 Image Chart
1995 9 16 15 30.4 137.9 925 100 5 Image Chart
1995 9 16 18 31.3 138.3 930 95 5 Image Chart
1995 9 16 21 32.3 138.9 930 95 5 Image Chart
1995 9 17 00 33.4 139.8 930 95 5 Image Chart
1995 9 17 03 34.5 141.0 940 85 5 Image Chart
1995 9 17 06 36.3 142.5 945 85 5 Image Chart
1995 9 17 09 38.3 144.1 950 80 5 Image Chart
1995 9 17 12 40.1 145.8 960 75 5 Image Chart
1995 9 17 15 41.6 148.1 965 70 5 Image Chart
1995 9 17 18 42.4 150.4 976 0 6 Image Chart
1995 9 18 00 45.0 156.0 980 0 6 Image Chart
1995 9 18 06 47.0 163.0 976 0 6 Image Chart
1995 9 18 12 48.0 170.0 972 0 6 Image Chart
1995 9 18 18 49.0 176.0 968 0 6 Image Chart
1995 9 19 00 49.0 180.0 964 0 6 Image Chart
1995 9 19 06 49.0 184.0 960 0 6 Image Chart
Japan Meteorological Agency Best Track Data | Correction Date : 1996-01-19
< Typhoon 199511 1995 Season Typhoon 199513 >

Help